createdAt,value
2023-05-13T00:12:12.032Z,1.40
2023-05-13T00:25:12.075Z,1.30
2023-05-13T00:38:12.056Z,1.20
2023-05-13T00:51:12.055Z,1.10
2023-05-13T01:04:12.080Z,1.00
2023-05-13T01:17:12.082Z,1.00
2023-05-13T01:30:12.060Z,1.00
2023-05-13T01:43:12.057Z,1.00
2023-05-13T01:56:12.072Z,0.80
2023-05-13T02:09:12.077Z,1.05
2023-05-13T02:22:12.087Z,0.90
2023-05-13T02:35:12.081Z,0.80
2023-05-13T02:48:12.081Z,0.70
2023-05-13T03:01:12.109Z,0.70
2023-05-13T03:14:12.115Z,0.80
2023-05-13T03:27:12.113Z,0.70
2023-05-13T03:41:12.131Z,0.70
2023-05-13T03:55:12.128Z,0.60
2023-05-13T04:09:12.133Z,0.60
2023-05-13T04:23:12.153Z,0.50
2023-05-13T04:38:12.155Z,0.50
2023-05-13T04:52:12.160Z,0.50
2023-05-13T05:06:12.174Z,0.50
2023-05-13T05:20:12.157Z,0.50
2023-05-13T05:34:12.179Z,0.40
2023-05-13T05:48:12.339Z,0.40
2023-05-13T06:02:12.180Z,0.50
2023-05-13T06:16:12.214Z,0.50
2023-05-13T06:30:12.177Z,0.60
2023-05-13T06:44:12.212Z,2.10
2023-05-13T06:58:12.224Z,2.30
2023-05-13T07:12:12.256Z,2.00
2023-05-13T07:26:12.220Z,2.30
2023-05-13T07:40:12.242Z,2.00
2023-05-13T07:54:12.279Z,2.10
2023-05-13T08:08:12.246Z,2.00
2023-05-13T08:22:12.224Z,1.80
2023-05-13T08:36:12.241Z,1.90
2023-05-13T08:50:12.231Z,1.70
2023-05-13T09:04:12.260Z,1.70
2023-05-13T09:18:12.260Z,1.60
2023-05-13T09:32:12.283Z,1.60
2023-05-13T09:46:12.277Z,1.30
2023-05-13T10:00:18.099Z,1.40
2023-05-13T10:14:12.290Z,1.10
2023-05-13T10:28:12.292Z,1.20
2023-05-13T10:42:12.302Z,1.10
2023-05-13T10:56:12.299Z,0.90
2023-05-13T11:10:12.309Z,0.90
2023-05-13T11:24:12.310Z,0.80
2023-05-13T11:38:12.325Z,0.90
2023-05-13T11:52:12.324Z,0.75
2023-05-13T12:06:12.371Z,0.75
2023-05-13T12:20:12.419Z,0.80
2023-05-13T12:34:12.335Z,0.75
2023-05-13T12:48:12.372Z,0.55
2023-05-13T13:02:12.362Z,0.60
2023-05-13T13:16:12.443Z,0.80
2023-05-13T13:30:12.378Z,0.60
2023-05-13T13:44:12.352Z,0.60
2023-05-13T13:58:12.371Z,0.60
2023-05-13T14:12:12.368Z,0.50
2023-05-13T14:26:12.370Z,0.60
2023-05-13T14:40:12.409Z,0.60
2023-05-13T14:54:12.402Z,0.70
2023-05-13T15:08:12.382Z,0.60
2023-05-13T15:22:12.400Z,0.40
2023-05-13T15:36:12.411Z,0.40
2023-05-13T15:50:12.446Z,0.40
2023-05-13T16:04:12.437Z,0.50
2023-05-13T16:18:12.490Z,1.00
2023-05-13T16:32:12.452Z,1.20
2023-05-13T16:46:12.704Z,2.80
2023-05-13T17:00:12.471Z,2.70
2023-05-13T17:14:12.474Z,3.30
2023-05-13T17:28:12.524Z,3.20
2023-05-13T17:42:12.589Z,4.20
2023-05-13T17:56:12.505Z,5.10
2023-05-13T18:10:12.493Z,4.30
2023-05-13T18:24:12.515Z,12.60
2023-05-13T18:39:12.502Z,19.20
2023-05-13T18:53:12.511Z,19.70
2023-05-13T19:07:12.530Z,18.90
2023-05-13T19:20:12.530Z,19.40
2023-05-13T19:33:12.589Z,18.40
2023-05-13T19:46:12.585Z,17.60
2023-05-13T19:59:12.532Z,18.40
2023-05-13T20:12:12.529Z,16.70
2023-05-13T20:25:12.553Z,16.00
2023-05-13T20:38:12.549Z,15.00
2023-05-13T20:51:12.581Z,14.70
2023-05-13T21:04:12.658Z,13.70
2023-05-13T21:17:12.569Z,14.10
2023-05-13T21:30:12.559Z,14.85
2023-05-13T21:43:12.577Z,14.50
2023-05-13T21:56:12.583Z,13.70
2023-05-13T22:09:12.600Z,15.70
2023-05-13T22:22:12.591Z,16.40
2023-05-13T22:35:12.585Z,15.70
2023-05-13T22:48:12.654Z,15.50
2023-05-13T23:01:12.644Z,15.20
2023-05-13T23:14:12.635Z,14.60
2023-05-13T23:27:12.631Z,14.60
2023-05-13T23:40:12.626Z,13.80
2023-05-13T23:53:12.624Z,13.10
